createdAt,value
2022-09-07T17:37:52.260Z,23.4
2022-09-07T17:45:11.609Z,23.5
2022-09-07T17:50:51.283Z,23.4
2022-09-07T17:56:33.041Z,23.4
2022-09-07T18:03:15.560Z,23.4
2022-09-07T18:08:58.210Z,23.4
2022-09-07T18:15:33.416Z,23.3
2022-09-07T18:21:16.223Z,23.3
2022-09-07T18:26:24.290Z,23.2
2022-09-07T18:33:06.792Z,23.2
2022-09-07T18:38:29.220Z,23.1
2022-09-07T18:51:00.325Z,23.1
2022-09-07T18:57:32.060Z,23.1
2022-09-07T19:03:16.760Z,23.1
2022-09-07T19:10:01.944Z,23
2022-09-07T19:15:40.329Z,23
2022-09-07T19:20:49.650Z,22.9
2022-09-07T19:26:28.752Z,23
2022-09-07T19:31:51.624Z,23
2022-09-07T19:37:30.845Z,22.9
2022-09-07T19:43:09.230Z,22.9
2022-09-07T19:48:49.902Z,22.9
2022-09-07T19:54:28.016Z,22.9
2022-09-07T20:00:05.734Z,22.9
2022-09-07T20:05:44.143Z,22.9
2022-09-07T20:11:06.631Z,22.8
2022-09-07T20:16:31.580Z,22.9
2022-09-07T20:22:08.325Z,22.9
2022-09-07T20:27:46.325Z,22.8
2022-09-07T20:33:43.123Z,22.9
2022-09-07T20:39:20.395Z,22.9
2022-09-07T20:45:01.160Z,22.9
2022-09-07T20:50:23.456Z,22.9
2022-09-07T20:56:03.902Z,22.9
2022-09-07T21:01:46.989Z,22.9
2022-09-07T21:07:25.060Z,22.9
2022-09-07T21:12:38.751Z,22.9
2022-09-07T21:18:17.533Z,22.9
2022-09-07T21:24:24.872Z,22.9
2022-09-07T21:29:35.799Z,22.8
2022-09-07T21:35:00.902Z,22.9
2022-09-07T21:40:23.007Z,22.8
